createdAt,value
2022-07-31T00:00:24.235Z,2.60
2022-07-31T00:02:52.561Z,2.20
2022-07-31T00:05:20.575Z,2.70
2022-07-31T00:07:48.538Z,2.17
2022-07-31T00:10:16.717Z,2.23
2022-07-31T00:12:46.157Z,2.70
2022-07-31T00:15:14.115Z,4.00
2022-07-31T00:17:43.242Z,2.97
2022-07-31T00:20:14.144Z,3.70
2022-07-31T00:22:42.280Z,4.03
2022-07-31T00:25:11.121Z,4.13
2022-07-31T00:27:39.562Z,2.50
2022-07-31T00:30:12.528Z,2.60
2022-07-31T00:32:40.589Z,3.20
2022-07-31T00:35:09.859Z,2.30
2022-07-31T00:37:40.301Z,2.13
2022-07-31T00:40:11.772Z,3.00
2022-07-31T00:42:40.070Z,2.40
2022-07-31T00:45:10.800Z,2.47
2022-07-31T00:47:41.829Z,2.43
2022-07-31T00:50:10.829Z,2.10
2022-07-31T00:52:38.770Z,4.63
2022-07-31T00:55:07.762Z,2.90
2022-07-31T00:57:35.756Z,3.73
2022-07-31T01:00:03.822Z,3.43
2022-07-31T01:02:33.220Z,5.10
2022-07-31T01:05:01.139Z,4.87
2022-07-31T01:07:29.095Z,3.10
2022-07-31T01:09:57.378Z,2.33
2022-07-31T01:12:30.342Z,5.30
2022-07-31T01:14:59.699Z,2.70
2022-07-31T01:17:29.261Z,3.63
2022-07-31T01:19:59.337Z,4.70
2022-07-31T01:22:50.626Z,2.37
2022-07-31T01:25:29.898Z,2.50
2022-07-31T01:28:04.462Z,2.40
2022-07-31T01:30:36.914Z,2.57
2022-07-31T01:33:09.375Z,2.47
2022-07-31T01:35:42.486Z,2.67
2022-07-31T01:38:14.602Z,2.23
2022-07-31T01:40:45.561Z,2.50
2022-07-31T01:43:16.515Z,2.00
2022-07-31T01:45:49.002Z,2.43
2022-07-31T01:48:17.246Z,2.70
2022-07-31T01:50:46.706Z,2.20
2022-07-31T01:53:17.573Z,2.67
2022-07-31T01:55:56.708Z,2.30
2022-07-31T01:58:36.037Z,2.10
2022-07-31T02:01:08.289Z,2.03
2022-07-31T02:03:42.690Z,2.23
2022-07-31T02:06:13.723Z,2.10
2022-07-31T02:08:41.950Z,2.20
2022-07-31T02:11:10.002Z,2.27
2022-07-31T02:13:38.906Z,5.27
2022-07-31T02:16:08.333Z,5.67
2022-07-31T02:18:37.175Z,2.73
2022-07-31T02:21:05.200Z,4.57
2022-07-31T02:23:33.228Z,5.17
2022-07-31T02:26:02.022Z,2.80
2022-07-31T02:28:30.721Z,2.60
2022-07-31T02:30:59.214Z,2.50
2022-07-31T02:33:29.051Z,1.97
2022-07-31T02:35:57.782Z,2.40
2022-07-31T02:38:28.017Z,2.00
2022-07-31T02:40:59.687Z,2.20
2022-07-31T02:43:27.909Z,2.13
2022-07-31T02:45:56.333Z,2.77
2022-07-31T02:48:25.271Z,2.30
2022-07-31T02:50:54.867Z,5.97
2022-07-31T02:53:22.841Z,5.73
2022-07-31T02:55:51.361Z,5.10
2022-07-31T02:58:19.563Z,2.83
2022-07-31T03:00:47.635Z,2.23
2022-07-31T03:03:15.698Z,2.70
2022-07-31T03:05:43.612Z,2.30
2022-07-31T03:08:12.922Z,2.23
2022-07-31T03:10:40.837Z,2.33
2022-07-31T03:13:08.965Z,2.10
2022-07-31T03:15:37.775Z,2.23
2022-07-31T03:18:11.294Z,2.23
2022-07-31T03:20:40.734Z,1.90
2022-07-31T03:23:08.810Z,2.07
2022-07-31T03:25:38.262Z,2.03
2022-07-31T03:28:06.215Z,2.07
2022-07-31T03:30:34.151Z,5.93
2022-07-31T03:33:03.635Z,7.30
2022-07-31T03:35:31.902Z,6.90
2022-07-31T03:37:59.869Z,6.97
2022-07-31T03:40:27.831Z,5.93
2022-07-31T03:42:57.808Z,5.87
2022-07-31T03:45:25.973Z,6.53
2022-07-31T03:47:54.106Z,7.47
2022-07-31T03:50:22.582Z,6.40
2022-07-31T03:52:51.129Z,5.87
2022-07-31T03:55:19.051Z,6.03
2022-07-31T03:57:47.648Z,4.20
2022-07-31T04:00:20.581Z,2.10
2022-07-31T04:02:48.658Z,2.50
2022-07-31T04:05:16.646Z,2.13
2022-07-31T04:07:44.606Z,2.30
2022-07-31T04:10:12.538Z,2.20
2022-07-31T04:12:40.522Z,3.20
2022-07-31T04:15:09.001Z,7.50
2022-07-31T04:17:38.738Z,2.97
2022-07-31T04:20:08.501Z,2.07
2022-07-31T04:22:36.551Z,4.83
2022-07-31T04:25:05.302Z,4.47
2022-07-31T04:27:33.486Z,3.23
2022-07-31T04:30:01.432Z,4.33
2022-07-31T04:32:31.009Z,2.00
2022-07-31T04:35:00.350Z,5.33
2022-07-31T04:37:28.286Z,2.73
2022-07-31T04:39:56.363Z,2.10
2022-07-31T04:42:24.382Z,2.50
2022-07-31T04:44:52.406Z,2.40
2022-07-31T04:47:22.359Z,2.30
2022-07-31T04:49:50.312Z,2.37
2022-07-31T04:52:19.822Z,2.27
2022-07-31T04:54:47.823Z,2.33
2022-07-31T04:57:19.862Z,2.30
2022-07-31T05:00:00.302Z,2.47
2022-07-31T05:02:29.066Z,3.93
2022-07-31T05:04:57.605Z,6.60
2022-07-31T05:07:28.890Z,4.30
2022-07-31T05:09:57.410Z,3.37
2022-07-31T05:12:25.460Z,6.13
2022-07-31T05:14:53.547Z,6.60
2022-07-31T05:17:21.666Z,6.07
2022-07-31T05:19:49.690Z,6.10
2022-07-31T05:22:17.602Z,5.87
2022-07-31T05:24:48.267Z,3.40
2022-07-31T05:27:16.306Z,7.50
2022-07-31T05:29:44.242Z,6.27
2022-07-31T05:32:12.606Z,7.27
2022-07-31T05:34:40.753Z,5.97
2022-07-31T05:37:08.726Z,6.50
2022-07-31T05:39:36.921Z,5.60
2022-07-31T05:42:07.859Z,4.40
2022-07-31T05:44:35.882Z,6.23
2022-07-31T05:47:03.824Z,6.03
2022-07-31T05:49:31.788Z,6.10
2022-07-31T05:51:59.783Z,3.80
2022-07-31T05:54:27.838Z,5.00
2022-07-31T05:56:55.820Z,4.27
2022-07-31T05:59:25.118Z,4.47
2022-07-31T06:01:53.197Z,5.30
2022-07-31T06:04:21.170Z,4.20
2022-07-31T06:06:49.121Z,4.93
2022-07-31T06:09:17.039Z,4.60
2022-07-31T06:11:44.994Z,2.60
2022-07-31T06:14:13.163Z,4.40
2022-07-31T06:16:42.462Z,3.93
2022-07-31T06:19:10.390Z,3.77
2022-07-31T06:21:38.366Z,2.30
2022-07-31T06:24:07.198Z,3.73
2022-07-31T06:26:37.047Z,2.67
2022-07-31T06:29:05.288Z,3.60
2022-07-31T06:31:33.227Z,3.50
2022-07-31T06:34:02.573Z,3.17
2022-07-31T06:36:30.491Z,3.13
2022-07-31T06:38:58.451Z,2.83
2022-07-31T06:41:43.650Z,3.03
2022-07-31T06:44:11.646Z,2.90
2022-07-31T06:46:39.629Z,2.40
2022-07-31T06:49:18.944Z,2.97
2022-07-31T06:51:46.977Z,2.60
2022-07-31T06:54:14.892Z,2.33
2022-07-31T06:56:42.827Z,2.83
2022-07-31T06:59:10.870Z,3.13
2022-07-31T07:01:39.015Z,2.57
2022-07-31T07:04:07.089Z,2.10
2022-07-31T07:06:36.485Z,2.10
2022-07-31T07:09:04.656Z,2.80
2022-07-31T07:11:32.661Z,1.90
2022-07-31T07:14:00.718Z,2.37
2022-07-31T07:16:28.897Z,2.23
2022-07-31T07:18:58.114Z,2.10
2022-07-31T07:21:26.354Z,2.07
2022-07-31T07:23:55.641Z,2.63
2022-07-31T07:26:23.694Z,2.20
2022-07-31T07:28:51.943Z,2.23
2022-07-31T07:31:19.869Z,2.77
2022-07-31T07:33:48.914Z,2.57
2022-07-31T07:36:22.484Z,2.80
2022-07-31T07:38:53.701Z,2.37
2022-07-31T07:41:25.189Z,3.10
2022-07-31T07:43:53.450Z,2.80
2022-07-31T07:46:22.208Z,2.77
2022-07-31T07:48:51.975Z,2.27
2022-07-31T07:51:20.839Z,2.80
2022-07-31T07:53:48.896Z,2.30
2022-07-31T07:56:17.176Z,2.00
2022-07-31T07:58:46.573Z,2.37
2022-07-31T08:01:14.878Z,2.60
2022-07-31T08:03:50.377Z,2.60
2022-07-31T08:06:20.292Z,2.13
2022-07-31T08:08:48.303Z,2.13
2022-07-31T08:11:17.088Z,2.43
2022-07-31T08:13:50.574Z,2.40
2022-07-31T08:16:19.921Z,1.63
2022-07-31T08:18:47.993Z,2.50
2022-07-31T08:21:15.917Z,2.00
2022-07-31T08:23:43.868Z,2.40
2022-07-31T08:26:13.127Z,2.00
2022-07-31T08:28:50.709Z,2.13
2022-07-31T08:31:20.717Z,2.83
2022-07-31T08:33:48.724Z,2.50
2022-07-31T08:36:16.645Z,2.30
2022-07-31T08:38:44.584Z,2.33
2022-07-31T08:41:14.032Z,2.03
2022-07-31T08:44:03.355Z,2.47
2022-07-31T08:46:33.170Z,1.97
2022-07-31T08:49:03.857Z,2.27
2022-07-31T08:51:34.790Z,2.40
2022-07-31T08:54:20.865Z,2.07
2022-07-31T08:56:52.644Z,2.10
2022-07-31T08:59:22.022Z,2.30
2022-07-31T09:01:51.533Z,2.17
2022-07-31T09:04:19.459Z,2.23
2022-07-31T09:06:47.414Z,2.00
2022-07-31T09:09:16.693Z,2.03
2022-07-31T09:11:48.293Z,2.03
2022-07-31T09:14:25.878Z,1.83
2022-07-31T09:16:55.639Z,1.90
2022-07-31T09:19:51.892Z,2.47
2022-07-31T09:22:21.689Z,2.90
2022-07-31T09:24:49.717Z,2.03
2022-07-31T09:27:18.458Z,1.83
2022-07-31T09:29:49.272Z,2.85
2022-07-31T09:32:19.742Z,1.70
2022-07-31T09:34:48.650Z,2.70
2022-07-31T09:37:18.495Z,1.70
2022-07-31T09:39:52.344Z,2.05
2022-07-31T09:42:21.312Z,2.17
2022-07-31T09:44:50.149Z,1.92
2022-07-31T09:47:23.418Z,2.03
2022-07-31T09:49:55.737Z,2.13
2022-07-31T09:52:24.238Z,1.50
2022-07-31T09:55:02.078Z,1.85
2022-07-31T09:57:30.488Z,1.85
2022-07-31T09:59:58.458Z,1.60
2022-07-31T10:02:28.718Z,1.77
2022-07-31T10:04:58.187Z,1.83
2022-07-31T10:07:32.348Z,1.95
2022-07-31T10:10:01.998Z,2.08
2022-07-31T10:12:30.854Z,2.10
2022-07-31T10:15:03.244Z,2.00
2022-07-31T10:17:36.177Z,1.67
2022-07-31T10:20:06.567Z,1.77
2022-07-31T10:22:37.060Z,2.08
2022-07-31T10:25:05.272Z,1.88
2022-07-31T10:27:33.750Z,1.75
2022-07-31T10:30:09.085Z,1.67
2022-07-31T10:32:38.463Z,1.52
2022-07-31T10:35:07.624Z,1.60
2022-07-31T10:37:41.215Z,1.75
2022-07-31T10:40:15.255Z,1.60
2022-07-31T10:42:57.096Z,1.77
2022-07-31T10:45:25.361Z,1.70
2022-07-31T10:47:59.288Z,2.05
2022-07-31T10:50:29.635Z,2.50
2022-07-31T10:53:08.659Z,1.92
2022-07-31T10:55:36.734Z,2.15
2022-07-31T10:58:09.666Z,1.70
2022-07-31T11:00:38.016Z,2.05
2022-07-31T11:03:21.028Z,1.58
2022-07-31T11:06:02.108Z,1.75
2022-07-31T11:08:42.042Z,1.80
2022-07-31T11:11:10.641Z,1.70
2022-07-31T11:13:49.247Z,1.83
2022-07-31T11:16:17.470Z,2.08
2022-07-31T11:18:57.972Z,1.88
2022-07-31T11:21:39.974Z,1.73
2022-07-31T11:24:15.748Z,1.80
2022-07-31T11:26:49.626Z,2.30
2022-07-31T11:30:00.451Z,2.20
2022-07-31T11:32:17.050Z,1.73
2022-07-31T11:34:55.771Z,2.00
2022-07-31T11:37:24.876Z,2.08
2022-07-31T11:39:53.939Z,1.80
2022-07-31T11:42:26.479Z,1.88
2022-07-31T11:45:10.761Z,2.03
2022-07-31T11:48:12.842Z,1.83
2022-07-31T11:50:30.990Z,1.88
2022-07-31T11:53:04.292Z,1.90
2022-07-31T11:55:32.462Z,1.80
2022-07-31T11:58:00.374Z,1.80
2022-07-31T12:00:30.202Z,2.20
2022-07-31T12:02:58.792Z,1.58
2022-07-31T12:05:39.130Z,1.80
2022-07-31T12:08:07.984Z,1.80
2022-07-31T12:10:36.188Z,1.90
2022-07-31T12:13:04.196Z,2.00
2022-07-31T12:15:32.302Z,2.13
2022-07-31T12:18:05.240Z,2.08
2022-07-31T12:20:36.971Z,1.90
2022-07-31T12:23:07.055Z,2.30
2022-07-31T12:25:55.159Z,2.00
2022-07-31T12:28:23.153Z,2.33
2022-07-31T12:30:59.697Z,2.30
2022-07-31T12:33:28.574Z,1.88
2022-07-31T12:35:57.915Z,2.20
2022-07-31T12:38:45.263Z,2.05
2022-07-31T12:41:14.984Z,2.03
2022-07-31T12:43:51.574Z,2.28
2022-07-31T12:46:24.165Z,1.88
2022-07-31T12:48:52.309Z,2.30
2022-07-31T12:51:45.207Z,2.30
2022-07-31T12:54:10.239Z,2.10
2022-07-31T12:56:39.500Z,1.65
2022-07-31T12:59:08.073Z,2.38
2022-07-31T13:01:36.897Z,1.88
2022-07-31T13:04:08.019Z,2.00
2022-07-31T13:06:51.382Z,2.20
2022-07-31T13:09:19.737Z,1.90
2022-07-31T13:11:48.453Z,2.20
2022-07-31T13:14:17.083Z,2.42
2022-07-31T13:16:45.209Z,2.20
2022-07-31T13:19:14.056Z,2.10
2022-07-31T13:21:49.260Z,2.10
2022-07-31T13:24:19.844Z,2.17
2022-07-31T13:26:47.960Z,2.10
2022-07-31T13:29:16.016Z,2.08
2022-07-31T13:31:44.361Z,2.03
2022-07-31T13:34:13.252Z,2.08
2022-07-31T13:36:41.257Z,2.10
2022-07-31T13:39:09.385Z,2.08
2022-07-31T13:41:39.482Z,2.08
2022-07-31T13:44:08.154Z,2.00
2022-07-31T13:46:36.093Z,2.45
2022-07-31T13:49:08.413Z,2.47
2022-07-31T13:51:37.099Z,2.40
2022-07-31T13:54:05.261Z,1.98
2022-07-31T13:56:41.209Z,2.22
2022-07-31T13:59:14.256Z,2.15
2022-07-31T14:02:04.829Z,2.28
2022-07-31T14:04:32.941Z,2.50
2022-07-31T14:07:07.392Z,2.53
2022-07-31T14:09:36.088Z,2.45
2022-07-31T14:12:05.863Z,2.63
2022-07-31T14:14:35.443Z,2.30
2022-07-31T14:17:03.381Z,2.47
2022-07-31T14:19:43.824Z,2.70
2022-07-31T14:22:13.974Z,2.88
2022-07-31T14:24:49.849Z,2.20
2022-07-31T14:27:20.522Z,2.80
2022-07-31T14:29:50.024Z,2.42
2022-07-31T14:32:19.277Z,2.22
2022-07-31T14:34:47.295Z,2.88
2022-07-31T14:37:15.261Z,2.65
2022-07-31T14:39:43.352Z,2.10
2022-07-31T14:42:12.307Z,2.30
2022-07-31T14:44:42.272Z,3.17
2022-07-31T14:47:12.596Z,2.97
2022-07-31T14:50:06.713Z,3.20
2022-07-31T14:52:29.549Z,2.63
2022-07-31T14:54:59.066Z,3.72
2022-07-31T14:57:27.070Z,2.00
2022-07-31T14:59:55.664Z,3.05
2022-07-31T15:02:24.989Z,2.58
2022-07-31T15:04:53.479Z,2.35
2022-07-31T15:07:41.214Z,3.15
2022-07-31T15:10:11.574Z,2.20
2022-07-31T15:12:39.554Z,3.13
2022-07-31T15:15:08.806Z,2.30
2022-07-31T15:17:38.187Z,3.60
2022-07-31T15:20:06.902Z,2.72
2022-07-31T15:22:34.918Z,2.90
2022-07-31T15:25:02.883Z,2.60
2022-07-31T15:27:30.814Z,3.75
2022-07-31T15:30:00.465Z,2.60
2022-07-31T15:32:37.483Z,4.38
2022-07-31T15:35:07.073Z,3.83
2022-07-31T15:37:36.465Z,4.30
2022-07-31T15:40:06.401Z,4.32
2022-07-31T15:42:37.639Z,3.47
2022-07-31T15:45:06.598Z,2.40
2022-07-31T15:47:34.534Z,3.47
2022-07-31T15:50:04.009Z,2.53
2022-07-31T15:52:32.056Z,3.30
2022-07-31T15:55:00.107Z,5.88
2022-07-31T15:57:28.075Z,5.57
2022-07-31T15:59:56.185Z,5.72
2022-07-31T16:02:24.579Z,7.35
2022-07-31T16:04:54.842Z,5.10
2022-07-31T16:08:33.190Z,2.67
2022-07-31T16:10:18.432Z,6.57
2022-07-31T16:12:46.683Z,6.55
2022-07-31T16:15:15.281Z,6.85
2022-07-31T16:17:44.235Z,5.40
2022-07-31T16:20:20.890Z,5.38
2022-07-31T16:22:58.324Z,6.30
2022-07-31T16:25:27.243Z,7.40
2022-07-31T16:27:55.375Z,5.30
2022-07-31T16:30:26.253Z,3.72
2022-07-31T16:32:54.597Z,3.13
2022-07-31T16:35:22.701Z,7.20
2022-07-31T16:37:53.331Z,6.72
2022-07-31T16:40:29.383Z,6.80
2022-07-31T16:43:02.046Z,5.65
2022-07-31T16:45:31.028Z,3.08
2022-07-31T16:47:59.191Z,3.50
2022-07-31T16:50:27.489Z,6.33
2022-07-31T16:52:55.600Z,3.92
2022-07-31T16:56:01.119Z,5.87
2022-07-31T16:58:15.242Z,5.20
2022-07-31T17:00:43.328Z,4.43
2022-07-31T17:03:31.072Z,4.90
2022-07-31T17:05:59.255Z,2.87
2022-07-31T17:08:28.886Z,6.23
2022-07-31T17:10:58.261Z,6.87
2022-07-31T17:13:26.206Z,6.60
2022-07-31T17:15:54.147Z,7.50
2022-07-31T17:18:25.377Z,5.57
2022-07-31T17:20:55.931Z,5.40
2022-07-31T17:23:43.365Z,3.40
2022-07-31T17:26:20.995Z,5.73
2022-07-31T17:28:50.364Z,5.67
2022-07-31T17:31:18.430Z,4.53
2022-07-31T17:33:54.558Z,5.93
2022-07-31T17:36:29.000Z,4.87
2022-07-31T17:38:57.191Z,5.13
2022-07-31T17:41:26.867Z,5.83
2022-07-31T17:43:55.014Z,4.90
2022-07-31T17:46:28.365Z,4.97
2022-07-31T17:49:02.901Z,5.57
2022-07-31T17:51:30.892Z,3.40
2022-07-31T17:54:00.455Z,5.50
2022-07-31T17:56:30.074Z,4.57
2022-07-31T17:59:04.263Z,4.70
2022-07-31T18:01:33.165Z,4.10
2022-07-31T18:04:01.198Z,5.20
2022-07-31T18:06:29.246Z,4.77
2022-07-31T18:08:59.195Z,3.77
2022-07-31T18:11:27.250Z,4.57
2022-07-31T18:14:00.889Z,3.87
2022-07-31T18:16:31.457Z,4.93
2022-07-31T18:18:59.430Z,5.10
2022-07-31T18:21:27.402Z,3.90
2022-07-31T18:23:55.375Z,2.50
2022-07-31T18:26:23.632Z,4.83
2022-07-31T18:28:51.977Z,3.73
2022-07-31T18:31:31.798Z,3.17
2022-07-31T18:34:03.637Z,4.73
2022-07-31T18:36:31.685Z,5.37
2022-07-31T18:38:59.711Z,4.43
2022-07-31T18:41:27.800Z,6.47
2022-07-31T18:43:55.742Z,6.00
2022-07-31T18:46:25.716Z,5.90
2022-07-31T18:48:55.874Z,6.60
2022-07-31T18:51:24.944Z,6.10
2022-07-31T18:53:54.504Z,5.47
2022-07-31T18:56:23.371Z,7.00
2022-07-31T18:58:51.349Z,6.47
2022-07-31T19:01:19.456Z,4.87
2022-07-31T19:03:49.086Z,5.57
2022-07-31T19:06:17.374Z,5.57
2022-07-31T19:08:46.090Z,5.30
2022-07-31T19:11:14.053Z,5.40
2022-07-31T19:13:42.114Z,5.63
2022-07-31T19:16:10.148Z,5.20
2022-07-31T19:18:40.349Z,5.47
2022-07-31T19:21:23.086Z,4.50
2022-07-31T19:23:57.961Z,5.30
2022-07-31T19:26:25.965Z,4.17
2022-07-31T19:28:53.882Z,5.87
2022-07-31T19:31:22.070Z,4.93
2022-07-31T19:33:50.069Z,4.90
2022-07-31T19:36:20.038Z,5.43
2022-07-31T19:38:48.018Z,3.23
2022-07-31T19:41:16.065Z,4.97
2022-07-31T19:43:45.763Z,3.50
2022-07-31T19:46:13.761Z,4.80
2022-07-31T19:48:42.691Z,5.20
2022-07-31T19:51:10.892Z,5.73
2022-07-31T19:53:40.463Z,5.77
2022-07-31T19:56:08.837Z,6.20
2022-07-31T19:58:37.652Z,5.10
2022-07-31T20:01:06.782Z,6.30
2022-07-31T20:03:35.352Z,5.50
2022-07-31T20:06:03.727Z,5.77
2022-07-31T20:08:33.223Z,6.23
2022-07-31T20:11:04.519Z,6.27
2022-07-31T20:13:32.992Z,6.50
2022-07-31T20:16:01.486Z,7.00
2022-07-31T20:18:30.598Z,7.37
2022-07-31T20:21:00.894Z,7.10
2022-07-31T20:23:29.474Z,7.07
2022-07-31T20:25:57.520Z,7.30
2022-07-31T20:28:28.471Z,7.13
2022-07-31T20:30:56.511Z,7.83
2022-07-31T20:33:24.741Z,7.47
2022-07-31T20:35:52.700Z,6.70
2022-07-31T20:38:20.811Z,7.27
2022-07-31T20:40:53.689Z,7.43
2022-07-31T20:43:23.396Z,6.20
2022-07-31T20:45:53.084Z,7.87
2022-07-31T20:48:24.146Z,7.50
2022-07-31T20:50:53.009Z,6.87
2022-07-31T20:53:22.076Z,7.87
2022-07-31T20:55:50.628Z,8.20
2022-07-31T20:58:18.897Z,5.67
2022-07-31T21:00:47.632Z,6.40
2022-07-31T21:03:17.553Z,6.23
2022-07-31T21:05:45.664Z,6.13
2022-07-31T21:08:13.711Z,6.90
2022-07-31T21:10:42.128Z,6.90
2022-07-31T21:13:10.411Z,6.60
2022-07-31T21:15:42.580Z,5.80
2022-07-31T21:18:13.260Z,5.70
2022-07-31T21:20:51.040Z,8.13
2022-07-31T21:23:22.207Z,7.60
2022-07-31T21:25:50.832Z,6.83
2022-07-31T21:28:19.413Z,3.60
2022-07-31T21:30:47.818Z,3.23
2022-07-31T21:33:16.255Z,4.37
2022-07-31T21:35:46.404Z,4.27
2022-07-31T21:38:15.805Z,4.87
2022-07-31T21:40:44.563Z,4.43
2022-07-31T21:43:16.816Z,4.57
2022-07-31T21:45:54.772Z,5.37
2022-07-31T21:48:25.303Z,6.10
2022-07-31T21:50:55.946Z,6.90
2022-07-31T21:53:24.760Z,6.40
2022-07-31T21:55:53.092Z,6.23
2022-07-31T21:58:21.146Z,5.30
2022-07-31T22:00:49.565Z,4.70
2022-07-31T22:03:17.559Z,3.90
2022-07-31T22:06:02.805Z,3.30
2022-07-31T22:08:32.168Z,6.63
2022-07-31T22:11:00.093Z,6.00
2022-07-31T22:13:28.116Z,5.63
2022-07-31T22:16:00.678Z,7.27
2022-07-31T22:18:29.664Z,6.80
2022-07-31T22:20:58.129Z,5.40
2022-07-31T22:23:28.438Z,7.23
2022-07-31T22:25:58.171Z,6.80
2022-07-31T22:28:26.955Z,5.77
2022-07-31T22:30:55.731Z,7.13
2022-07-31T22:33:24.217Z,5.17
2022-07-31T22:36:00.337Z,7.40
2022-07-31T22:38:30.233Z,7.90
2022-07-31T22:41:00.329Z,3.73
2022-07-31T22:44:13.707Z,4.87
2022-07-31T22:46:16.912Z,5.53
2022-07-31T22:48:46.776Z,6.77
2022-07-31T22:51:15.646Z,5.90
2022-07-31T22:53:44.210Z,6.60
2022-07-31T22:56:13.610Z,3.50
2022-07-31T22:58:41.529Z,6.13
2022-07-31T23:01:09.455Z,2.43
2022-07-31T23:03:37.426Z,4.00
2022-07-31T23:06:31.666Z,2.80
2022-07-31T23:08:55.132Z,2.93
2022-07-31T23:11:24.885Z,6.60
2022-07-31T23:13:53.001Z,2.90
2022-07-31T23:16:21.357Z,5.40
2022-07-31T23:18:49.426Z,2.30
2022-07-31T23:21:17.424Z,2.97
2022-07-31T23:23:48.535Z,4.03
2022-07-31T23:26:18.442Z,2.57
2022-07-31T23:28:47.917Z,4.87
2022-07-31T23:31:15.987Z,5.57
2022-07-31T23:33:44.459Z,3.73
2022-07-31T23:36:12.771Z,7.00
2022-07-31T23:38:40.998Z,6.47
2022-07-31T23:41:09.586Z,6.93
2022-07-31T23:43:36.686Z,6.13
2022-07-31T23:46:06.574Z,6.13
2022-07-31T23:48:35.971Z,3.47
2022-07-31T23:51:04.090Z,3.17
2022-07-31T23:53:32.058Z,6.43
2022-07-31T23:56:00.021Z,6.13
2022-07-31T23:58:27.933Z,6.50
